^^
Grace C. Lehan Memorial Weather Station Historical Data
Daily Summary for January 13, 2022 Units:  Metric    English   Both
Daily Weekly Monthly Yearly
  High: Low: Average:
Temperature: 1.1 °C -1.8 °C -0.4 °C
Dew Point: -3.6 °C -5.1 °C -4.7 °C
Humidity: 80% 68% 73%
Wind Speed: 0km/h 0km/h 0km/h
Wind Gust: 0km/h - -
Wind- -
Pressure: 1017.5 hPa 1016.1 hPa -
Precipitation: 0 mm    
 
 
Tabular Data for January 13, 2022
Time Temperature Dew Point Pressure Wind Wind Speed Wind Gust Humidity Rainfall Rate (Hourly) solar
00:04 1.1 °C -3.6 °C 1017.5 hPa Calm     70.8% 0 mm 0 W/m2
00:09 1 °C -4.1 °C 1017.5 hPa Calm     69% 0 mm 0 W/m2
00:14 0.9 °C -4.1 °C 1017.5 hPa Calm     68.9% 0 mm 0 W/m2
00:19 0.9 °C -4.2 °C 1017.5 hPa Calm     68.5% 0 mm 0 W/m2
00:24 0.9 °C -4.2 °C 1017.5 hPa Calm     68.5% 0 mm 0 W/m2
00:29 0.9 °C -4.2 °C 1017.5 hPa Calm     68.7% 0 mm 0 W/m2
00:34 0.9 °C -4.2 °C 1017.2 hPa Calm     68.6% 0 mm 0 W/m2
00:39 0.8 °C -4.2 °C 1017.5 hPa Calm     68.8% 0 mm 0 W/m2
00:44 0.8 °C -4.4 °C 1017.5 hPa Calm     68% 0 mm 0 W/m2
00:49 0.8 °C -4.4 °C 1017.5 hPa Calm     68% 0 mm 0 W/m2
00:54 0.8 °C -4.5 °C 1017.2 hPa Calm     68% 0 mm 0 W/m2
00:59 0.7 °C -4.6 °C 1017.2 hPa Calm     68% 0 mm 0 W/m2
01:04 0.6 °C -4.5 °C 1017.2 hPa Calm     68.9% 0 mm 0 W/m2
01:09 0.4 °C -4.6 °C 1017.2 hPa Calm     69% 0 mm 0 W/m2
01:14 0.3 °C -4.7 °C 1017.2 hPa Calm     69% 0 mm 0 W/m2
01:19 0.3 °C -4.7 °C 1017.2 hPa Calm     69% 0 mm 0 W/m2
01:24 0.2 °C -4.8 °C 1017.2 hPa Calm     69.2% 0 mm 0 W/m2
01:29 0.1 °C -4.7 °C 1017.2 hPa Calm     70% 0 mm 0 W/m2
01:34 0.1 °C -4.7 °C 1017.2 hPa Calm     70% 0 mm 0 W/m2
01:39 0.1 °C -4.8 °C 1017.2 hPa Calm     70% 0 mm 0 W/m2
01:44 0.1 °C -4.8 °C 1017.2 hPa Calm     70% 0 mm 0 W/m2
01:49 0.1 °C -4.8 °C 1017.2 hPa Calm     70% 0 mm 0 W/m2
01:54 0.1 °C -4.8 °C 1017.2 hPa Calm     70% 0 mm 0 W/m2
01:59 0 °C -4.7 °C 1017.2 hPa Calm     70.4% 0 mm 0 W/m2
02:04 0 °C -4.8 °C 1017.2 hPa Calm     70% 0 mm 0 W/m2
02:09 0 °C -4.8 °C 1017.2 hPa Calm     70% 0 mm 0 W/m2
02:14 0 °C -4.8 °C 1017.2 hPa Calm     70% 0 mm 0 W/m2
02:19 0 °C -4.8 °C 1017.2 hPa Calm     70% 0 mm 0 W/m2
02:24 -0.1 °C -4.9 °C 1017.2 hPa Calm     70% 0 mm 0 W/m2
02:29 -0.1 °C -4.9 °C 1017.2 hPa Calm     70% 0 mm 0 W/m2
02:34 -0.2 °C -4.9 °C 1017.2 hPa Calm     70% 0 mm 0 W/m2
02:39 -0.2 °C -4.8 °C 1017.2 hPa Calm     71% 0 mm 0 W/m2
02:44 -0.3 °C -4.9 °C 1017.2 hPa Calm     71% 0 mm 0 W/m2
02:49 -0.3 °C -4.9 °C 1017.2 hPa Calm     71% 0 mm 0 W/m2
02:54 -0.4 °C -4.8 °C 1017.2 hPa Calm     71.9% 0 mm 0 W/m2
02:59 -0.4 °C -4.7 °C 1017.2 hPa Calm     72.4% 0 mm 0 W/m2
03:04 -0.4 °C -4.6 °C 1017.2 hPa Calm     73% 0 mm 0 W/m2
03:09 -0.4 °C -4.6 °C 1017.2 hPa Calm     73% 0 mm 0 W/m2
03:14 -0.4 °C -4.6 °C 1016.8 hPa Calm     73% 0 mm 0 W/m2
03:19 -0.4 °C -4.6 °C 1016.5 hPa Calm     73% 0 mm 0 W/m2
03:24 -0.4 °C -4.6 °C 1016.5 hPa Calm     73% 0 mm 0 W/m2
03:29 -0.4 °C -4.7 °C 1016.5 hPa Calm     73% 0 mm 0 W/m2
03:34 -0.4 °C -4.7 °C 1016.5 hPa Calm     73% 0 mm 0 W/m2
03:39 -0.4 °C -4.7 °C 1016.5 hPa Calm     73% 0 mm 0 W/m2
03:44 -0.4 °C -4.6 °C 1016.5 hPa Calm     73.4% 0 mm 0 W/m2
03:49 -0.4 °C -4.5 °C 1016.5 hPa Calm     74% 0 mm 0 W/m2
03:54 -0.4 °C -4.5 °C 1016.1 hPa Calm     74% 0 mm 0 W/m2
03:59 -0.4 °C -4.5 °C 1016.1 hPa Calm     74% 0 mm 0 W/m2
04:00 -0.4 °C -4.5 °C 1016.1 hPa Calm     74% 0 mm 0 W/m2
04:09 -0.5 °C -4.6 °C 1016.5 hPa Calm     74% 0 mm 0 W/m2
04:14 -0.6 °C -4.6 °C 1016.5 hPa Calm     74% 0 mm 0 W/m2
04:19 -0.7 °C -4.6 °C 1016.1 hPa Calm     74.5% 0 mm 0 W/m2
04:24 -0.8 °C -4.7 °C 1016.1 hPa Calm     75% 0 mm 0 W/m2
04:29 -0.9 °C -4.7 °C 1016.1 hPa Calm     75% 0 mm 0 W/m2
04:34 -1 °C -4.8 °C 1016.1 hPa Calm     75% 0 mm 0 W/m2
04:39 -1.1 °C -4.8 °C 1016.1 hPa Calm     75.8% 0 mm 0 W/m2
04:44 -1.2 °C -4.9 °C 1016.1 hPa Calm     76% 0 mm 0 W/m2
04:49 -1.3 °C -4.9 °C 1016.1 hPa Calm     76.7% 0 mm 0 W/m2
04:54 -1.4 °C -4.9 °C 1016.5 hPa Calm     77.2% 0 mm 0 W/m2
04:59 -1.6 °C -4.8 °C 1016.5 hPa Calm     78% 0 mm 0 W/m2
05:04 -1.6 °C -4.9 °C 1016.5 hPa Calm     78% 0 mm 0 W/m2
05:09 -1.7 °C -5 °C 1016.1 hPa Calm     78% 0 mm 0 W/m2
05:14 -1.7 °C -5.1 °C 1016.5 hPa Calm     78% 0 mm 0 W/m2
05:19 -1.8 °C -5 °C 1016.5 hPa Calm     78.7% 0 mm 0 W/m2
05:24 -1.8 °C -4.9 °C 1016.5 hPa Calm     79.2% 0 mm 0 W/m2
05:29 -1.8 °C -4.9 °C 1016.5 hPa Calm     79.3% 0 mm 0 W/m2
05:34 -1.8 °C -4.8 °C 1016.5 hPa Calm     80% 0 mm 0 W/m2
05:39 -1.8 °C -4.8 °C 1016.5 hPa Calm     80% 0 mm 0 W/m2
05:44 -1.8 °C -4.8 °C 1016.5 hPa Calm     80% 0 mm 0 W/m2
05:49 -1.8 °C -4.8 °C 1016.5 hPa Calm     80% 0 mm 0 W/m2
05:54 -1.8 °C -4.7 °C 1016.5 hPa Calm     80% 0 mm 0 W/m2
05:59 -1.7 °C -4.7 °C 1016.5 hPa Calm     80% 0 mm 0 W/m2
06:04 -1.6 °C -4.6 °C 1016.1 hPa Calm     80% 0 mm 0 W/m2
06:09 -1.6 °C -4.7 °C 1016.5 hPa Calm     79.7% 0 mm 0 W/m2
06:14 -1.6 °C -4.8 °C 1016.5 hPa Calm     79% 0 mm 0 W/m2
06:19 -1.6 °C -4.8 °C 1016.5 hPa Calm     79% 0 mm 0 W/m2
06:24 -1.6 °C -4.8 °C 1016.5 hPa Calm     79% 0 mm 0 W/m2
06:28 -1.6 °C -4.7 °C 1016.5 hPa Calm     79.3% 0 mm 0 W/m2
Hartford County Weather
Compliments of Weather Underground - 2 mb